sensor_id;sensor_type;location;lat;lon;timestamp;pressure;altitude;pressure_sealevel;temperature;humidity
54369;BME280;40266;52.434;17.056;2022-11-20T00:02:07;100186.66;;;-1.82;94.35
54369;BME280;40266;52.434;17.056;2022-11-20T00:04:49;100194.88;;;-1.81;94.32
54369;BME280;40266;52.434;17.056;2022-11-20T00:07:32;100196.41;;;-1.82;94.39
54369;BME280;40266;52.434;17.056;2022-11-20T00:10:15;100202.92;;;-1.81;94.40
54369;BME280;40266;52.434;17.056;2022-11-20T00:12:58;100203.77;;;-1.82;94.43
54369;BME280;40266;52.434;17.056;2022-11-20T00:15:41;100202.23;;;-1.82;94.32
54369;BME280;40266;52.434;17.056;2022-11-20T00:18:24;100198.77;;;-1.83;94.28
54369;BME280;40266;52.434;17.056;2022-11-20T00:21:11;100196.03;;;-1.83;94.39
54369;BME280;40266;52.434;17.056;2022-11-20T00:23:56;100198.77;;;-1.83;94.40
54369;BME280;40266;52.434;17.056;2022-11-20T00:26:39;100203.40;;;-1.83;94.46
54369;BME280;40266;52.434;17.056;2022-11-20T00:29:23;100203.09;;;-1.82;94.47
54369;BME280;40266;52.434;17.056;2022-11-20T00:32:06;100204.61;;;-1.82;94.32
54369;BME280;40266;52.434;17.056;2022-11-20T00:34:49;100204.63;;;-1.82;94.49
54369;BME280;40266;52.434;17.056;2022-11-20T00:37:32;100203.13;;;-1.81;94.47
54369;BME280;40266;52.434;17.056;2022-11-20T00:40:15;100203.94;;;-1.82;94.36
54369;BME280;40266;52.434;17.056;2022-11-20T00:42:57;100205.14;;;-1.82;94.41
54369;BME280;40266;52.434;17.056;2022-11-20T00:45:40;100203.58;;;-1.83;94.47
54369;BME280;40266;52.434;17.056;2022-11-20T00:48:23;100202.54;;;-1.83;94.39
54369;BME280;40266;52.434;17.056;2022-11-20T00:51:06;100204.45;;;-1.82;94.42
54369;BME280;40266;52.434;17.056;2022-11-20T00:53:48;100205.29;;;-1.83;94.28
54369;BME280;40266;52.434;17.056;2022-11-20T00:56:31;100206.46;;;-1.84;94.30
54369;BME280;40266;52.434;17.056;2022-11-20T00:59:14;100211.05;;;-1.85;94.21
54369;BME280;40266;52.434;17.056;2022-11-20T01:01:57;100212.53;;;-1.87;94.25
54369;BME280;40266;52.434;17.056;2022-11-20T01:04:40;100209.08;;;-1.89;94.26
54369;BME280;40266;52.434;17.056;2022-11-20T01:07:23;100208.20;;;-1.89;94.24
54369;BME280;40266;52.434;17.056;2022-11-20T01:10:06;100205.09;;;-1.91;94.47
54369;BME280;40266;52.434;17.056;2022-11-20T01:12:49;100204.58;;;-1.91;94.41
54369;BME280;40266;52.434;17.056;2022-11-20T01:15:52;100206.60;;;-1.92;94.24
54369;BME280;40266;52.434;17.056;2022-11-20T01:18:36;100208.09;;;-1.94;94.13
54369;BME280;40266;52.434;17.056;2022-11-20T01:21:22;100207.89;;;-1.95;94.28
54369;BME280;40266;52.434;17.056;2022-11-20T01:24:07;100205.35;;;-1.94;94.31
54369;BME280;40266;52.434;17.056;2022-11-20T01:26:50;100206.06;;;-1.93;94.34
54369;BME280;40266;52.434;17.056;2022-11-20T01:29:34;100207.34;;;-1.90;94.50
54369;BME280;40266;52.434;17.056;2022-11-20T01:32:17;100208.16;;;-1.91;94.36
54369;BME280;40266;52.434;17.056;2022-11-20T01:35:01;100204.23;;;-1.91;94.28
54369;BME280;40266;52.434;17.056;2022-11-20T01:37:43;100202.69;;;-1.91;94.28
54369;BME280;40266;52.434;17.056;2022-11-20T01:40:26;100204.91;;;-1.91;94.36
54369;BME280;40266;52.434;17.056;2022-11-20T01:43:19;100203.34;;;-1.92;94.35
54369;BME280;40266;52.434;17.056;2022-11-20T01:49:08;100203.83;;;-1.94;94.40
54369;BME280;40266;52.434;17.056;2022-11-20T01:52:00;100204.39;;;-1.92;94.42
54369;BME280;40266;52.434;17.056;2022-11-20T01:54:57;100209.84;;;-1.92;94.48
54369;BME280;40266;52.434;17.056;2022-11-20T01:57:44;100206.09;;;-1.92;94.68
54369;BME280;40266;52.434;17.056;2022-11-20T02:00:28;100208.05;;;-1.89;94.65
54369;BME280;40266;52.434;17.056;2022-11-20T02:03:15;100205.98;;;-1.89;94.63
54369;BME280;40266;52.434;17.056;2022-11-20T02:06:06;100203.25;;;-1.89;94.64
54369;BME280;40266;52.434;17.056;2022-11-20T02:08:51;100199.13;;;-1.89;94.70
54369;BME280;40266;52.434;17.056;2022-11-20T02:11:35;100196.40;;;-1.89;94.77
54369;BME280;40266;52.434;17.056;2022-11-20T02:14:18;100193.13;;;-1.90;94.68
54369;BME280;40266;52.434;17.056;2022-11-20T02:17:01;100188.84;;;-1.91;94.67
54369;BME280;40266;52.434;17.056;2022-11-20T02:19:44;100188.30;;;-1.92;94.63
54369;BME280;40266;52.434;17.056;2022-11-20T02:22:31;100187.92;;;-1.93;94.85
54369;BME280;40266;52.434;17.056;2022-11-20T02:25:19;100189.61;;;-1.94;94.73
54369;BME280;40266;52.434;17.056;2022-11-20T02:28:02;100192.69;;;-1.94;94.94
54369;BME280;40266;52.434;17.056;2022-11-20T02:30:46;100197.96;;;-1.95;94.94
54369;BME280;40266;52.434;17.056;2022-11-20T02:33:29;100195.61;;;-1.94;95.14
54369;BME280;40266;52.434;17.056;2022-11-20T02:36:15;100194.77;;;-1.92;95.13
54369;BME280;40266;52.434;17.056;2022-11-20T02:38:59;100198.90;;;-1.92;95.18
54369;BME280;40266;52.434;17.056;2022-11-20T02:41:42;100192.59;;;-1.91;95.33
54369;BME280;40266;52.434;17.056;2022-11-20T02:44:25;100188.68;;;-1.90;95.42
54369;BME280;40266;52.434;17.056;2022-11-20T02:47:08;100185.63;;;-1.89;95.31
54369;BME280;40266;52.434;17.056;2022-11-20T02:49:51;100181.31;;;-1.90;95.46
54369;BME280;40266;52.434;17.056;2022-11-20T02:52:33;100180.97;;;-1.91;95.31
54369;BME280;40266;52.434;17.056;2022-11-20T02:55:16;100181.30;;;-1.91;95.55
54369;BME280;40266;52.434;17.056;2022-11-20T02:57:59;100184.00;;;-1.92;95.56
54369;BME280;40266;52.434;17.056;2022-11-20T03:00:42;100176.61;;;-1.93;95.67
54369;BME280;40266;52.434;17.056;2022-11-20T03:03:24;100177.77;;;-1.95;95.63
54369;BME280;40266;52.434;17.056;2022-11-20T03:06:07;100177.59;;;-1.95;95.59
54369;BME280;40266;52.434;17.056;2022-11-20T03:08:50;100178.45;;;-1.96;95.72
54369;BME280;40266;52.434;17.056;2022-11-20T03:11:33;100179.48;;;-1.95;95.87
54369;BME280;40266;52.434;17.056;2022-11-20T03:14:17;100174.23;;;-1.93;96.00
54369;BME280;40266;52.434;17.056;2022-11-20T03:17:00;100167.22;;;-1.92;95.97
54369;BME280;40266;52.434;17.056;2022-11-20T03:19:43;100162.94;;;-1.93;95.88
54369;BME280;40266;52.434;17.056;2022-11-20T03:22:25;100164.46;;;-1.93;95.90
54369;BME280;40266;52.434;17.056;2022-11-20T03:25:11;100166.00;;;-1.93;95.95
54369;BME280;40266;52.434;17.056;2022-11-20T03:27:57;100165.51;;;-1.93;96.01
54369;BME280;40266;52.434;17.056;2022-11-20T03:30:39;100165.20;;;-1.91;96.10
54369;BME280;40266;52.434;17.056;2022-11-20T03:33:22;100170.05;;;-1.89;96.06
54369;BME280;40266;52.434;17.056;2022-11-20T03:36:09;100170.40;;;-1.88;96.22
54369;BME280;40266;52.434;17.056;2022-11-20T03:38:55;100173.14;;;-1.88;96.10
54369;BME280;40266;52.434;17.056;2022-11-20T03:41:39;100173.38;;;-1.86;96.24
54369;BME280;40266;52.434;17.056;2022-11-20T03:44:23;100172.91;;;-1.83;96.32
54369;BME280;40266;52.434;17.056;2022-11-20T03:47:05;100179.61;;;-1.82;96.26
54369;BME280;40266;52.434;17.056;2022-11-20T03:49:48;100181.56;;;-1.80;96.33
54369;BME280;40266;52.434;17.056;2022-11-20T03:52:31;100185.86;;;-1.79;96.37
54369;BME280;40266;52.434;17.056;2022-11-20T03:55:14;100188.48;;;-1.77;96.40
54369;BME280;40266;52.434;17.056;2022-11-20T03:57:56;100190.02;;;-1.77;96.40
54369;BME280;40266;52.434;17.056;2022-11-20T04:00:39;100186.59;;;-1.77;96.38
54369;BME280;40266;52.434;17.056;2022-11-20T04:03:22;100178.52;;;-1.78;96.24
54369;BME280;40266;52.434;17.056;2022-11-20T04:06:07;100181.96;;;-1.78;96.31
54369;BME280;40266;52.434;17.056;2022-11-20T04:08:54;100175.47;;;-1.77;96.34
54369;BME280;40266;52.434;17.056;2022-11-20T04:11:39;100177.54;;;-1.76;96.30
54369;BME280;40266;52.434;17.056;2022-11-20T04:14:22;100182.24;;;-1.74;96.48
54369;BME280;40266;52.434;17.056;2022-11-20T04:17:05;100179.38;;;-1.71;96.37
54369;BME280;40266;52.434;17.056;2022-11-20T04:19:48;100183.90;;;-1.68;96.47
54369;BME280;40266;52.434;17.056;2022-11-20T04:22:30;100182.31;;;-1.70;96.33
54369;BME280;40266;52.434;17.056;2022-11-20T04:25:14;100185.06;;;-1.70;96.35
54369;BME280;40266;52.434;17.056;2022-11-20T04:27:56;100182.50;;;-1.70;96.36
54369;BME280;40266;52.434;17.056;2022-11-20T04:30:39;100180.58;;;-1.71;96.32
54369;BME280;40266;52.434;17.056;2022-11-20T04:33:22;100182.48;;;-1.71;96.37
54369;BME280;40266;52.434;17.056;2022-11-20T04:36:14;100180.42;;;-1.70;96.47
54369;BME280;40266;52.434;17.056;2022-11-20T04:38:58;100182.15;;;-1.70;96.34
54369;BME280;40266;52.434;17.056;2022-11-20T04:41:42;100175.65;;;-1.70;96.39
54369;BME280;40266;52.434;17.056;2022-11-20T04:44:25;100173.23;;;-1.71;96.35
54369;BME280;40266;52.434;17.056;2022-11-20T04:47:08;100172.89;;;-1.71;96.36
54369;BME280;40266;52.434;17.056;2022-11-20T04:49:50;100169.98;;;-1.71;96.40
54369;BME280;40266;52.434;17.056;2022-11-20T04:52:34;100167.55;;;-1.72;96.40
54369;BME280;40266;52.434;17.056;2022-11-20T04:55:16;100165.10;;;-1.74;96.32
54369;BME280;40266;52.434;17.056;2022-11-20T04:57:59;100159.29;;;-1.74;96.36
54369;BME280;40266;52.434;17.056;2022-11-20T05:00:42;100159.62;;;-1.74;96.43
54369;BME280;40266;52.434;17.056;2022-11-20T05:03:25;100158.44;;;-1.74;96.40
54369;BME280;40266;52.434;17.056;2022-11-20T05:06:08;100159.63;;;-1.74;96.47
54369;BME280;40266;52.434;17.056;2022-11-20T05:08:52;100159.39;;;-1.76;96.45
54369;BME280;40266;52.434;17.056;2022-11-20T05:11:35;100156.14;;;-1.77;96.44
54369;BME280;40266;52.434;17.056;2022-11-20T05:14:17;100155.34;;;-1.75;96.68
54369;BME280;40266;52.434;17.056;2022-11-20T05:17:00;100158.96;;;-1.74;96.83
54369;BME280;40266;52.434;17.056;2022-11-20T05:19:43;100159.50;;;-1.72;96.67
54369;BME280;40266;52.434;17.056;2022-11-20T05:22:26;100161.41;;;-1.71;96.80
54369;BME280;40266;52.434;17.056;2022-11-20T05:25:09;100162.63;;;-1.70;96.85
54369;BME280;40266;52.434;17.056;2022-11-20T05:27:53;100162.35;;;-1.67;96.72
54369;BME280;40266;52.434;17.056;2022-11-20T05:30:36;100166.30;;;-1.67;96.70
54369;BME280;40266;52.434;17.056;2022-11-20T05:33:21;100166.95;;;-1.68;96.54
54369;BME280;40266;52.434;17.056;2022-11-20T05:36:05;100163.95;;;-1.72;96.40
54369;BME280;40266;52.434;17.056;2022-11-20T05:38:48;100161.16;;;-1.74;96.45
54369;BME280;40266;52.434;17.056;2022-11-20T05:41:33;100160.81;;;-1.75;96.56
54369;BME280;40266;52.434;17.056;2022-11-20T05:44:16;100161.97;;;-1.76;96.47
54369;BME280;40266;52.434;17.056;2022-11-20T05:46:58;100158.36;;;-1.77;96.52
54369;BME280;40266;52.434;17.056;2022-11-20T05:49:41;100156.80;;;-1.77;96.53
54369;BME280;40266;52.434;17.056;2022-11-20T05:52:24;100157.33;;;-1.77;96.72
54369;BME280;40266;52.434;17.056;2022-11-20T05:55:10;100158.58;;;-1.75;96.76
54369;BME280;40266;52.434;17.056;2022-11-20T05:57:53;100161.50;;;-1.75;96.77
54369;BME280;40266;52.434;17.056;2022-11-20T06:00:37;100163.04;;;-1.75;96.76
54369;BME280;40266;52.434;17.056;2022-11-20T06:03:20;100159.46;;;-1.74;96.72
54369;BME280;40266;52.434;17.056;2022-11-20T06:06:04;100153.14;;;-1.74;96.75
54369;BME280;40266;52.434;17.056;2022-11-20T06:08:47;100157.95;;;-1.73;96.78
54369;BME280;40266;52.434;17.056;2022-11-20T06:11:31;100160.33;;;-1.74;96.74
54369;BME280;40266;52.434;17.056;2022-11-20T06:14:14;100162.13;;;-1.76;96.59
54369;BME280;40266;52.434;17.056;2022-11-20T06:16:57;100157.88;;;-1.76;96.64
54369;BME280;40266;52.434;17.056;2022-11-20T06:19:40;100159.59;;;-1.75;96.68
54369;BME280;40266;52.434;17.056;2022-11-20T06:22:23;100159.38;;;-1.77;96.60
54369;BME280;40266;52.434;17.056;2022-11-20T06:25:06;100162.80;;;-1.78;96.73
54369;BME280;40266;52.434;17.056;2022-11-20T06:27:49;100160.68;;;-1.80;96.58
54369;BME280;40266;52.434;17.056;2022-11-20T06:30:32;100160.16;;;-1.80;96.58
54369;BME280;40266;52.434;17.056;2022-11-20T06:33:15;100165.09;;;-1.82;96.63
54369;BME280;40266;52.434;17.056;2022-11-20T06:35:58;100165.61;;;-1.81;96.64
54369;BME280;40266;52.434;17.056;2022-11-20T06:38:44;100162.52;;;-1.82;96.69
54369;BME280;40266;52.434;17.056;2022-11-20T06:41:27;100161.11;;;-1.83;96.75
54369;BME280;40266;52.434;17.056;2022-11-20T06:44:10;100159.05;;;-1.84;96.64
54369;BME280;40266;52.434;17.056;2022-11-20T06:46:53;100161.97;;;-1.83;96.70
54369;BME280;40266;52.434;17.056;2022-11-20T06:49:36;100159.89;;;-1.84;96.76
54369;BME280;40266;52.434;17.056;2022-11-20T06:52:21;100153.05;;;-1.84;96.86
54369;BME280;40266;52.434;17.056;2022-11-20T06:55:04;100155.98;;;-1.83;96.62
54369;BME280;40266;52.434;17.056;2022-11-20T06:57:47;100151.04;;;-1.82;96.78
54369;BME280;40266;52.434;17.056;2022-11-20T07:00:37;100153.59;;;-1.83;96.73
54369;BME280;40266;52.434;17.056;2022-11-20T07:03:20;100150.83;;;-1.84;96.66
54369;BME280;40266;52.434;17.056;2022-11-20T07:06:03;100150.28;;;-1.85;96.45
54369;BME280;40266;52.434;17.056;2022-11-20T07:08:51;100149.09;;;-1.85;96.42
54369;BME280;40266;52.434;17.056;2022-11-20T07:11:35;100145.80;;;-1.86;96.23
54369;BME280;40266;52.434;17.056;2022-11-20T07:14:18;100149.23;;;-1.86;96.29
54369;BME280;40266;52.434;17.056;2022-11-20T07:17:01;100147.69;;;-1.86;96.23
54369;BME280;40266;52.434;17.056;2022-11-20T07:19:44;100144.15;;;-1.84;96.23
54369;BME280;40266;52.434;17.056;2022-11-20T07:22:27;100140.83;;;-1.86;95.84
54369;BME280;40266;52.434;17.056;2022-11-20T07:25:10;100144.91;;;-1.88;95.82
54369;BME280;40266;52.434;17.056;2022-11-20T07:27:59;100141.02;;;-1.86;95.89
54369;BME280;40266;52.434;17.056;2022-11-20T07:30:42;100141.42;;;-1.83;95.85
54369;BME280;40266;52.434;17.056;2022-11-20T07:33:25;100135.60;;;-1.83;95.59
54369;BME280;40266;52.434;17.056;2022-11-20T07:36:08;100140.75;;;-1.83;95.46
54369;BME280;40266;52.434;17.056;2022-11-20T07:38:50;100140.75;;;-1.83;95.17
54369;BME280;40266;52.434;17.056;2022-11-20T07:41:33;100141.64;;;-1.81;95.41
54369;BME280;40266;52.434;17.056;2022-11-20T07:44:17;100144.40;;;-1.81;95.31
54369;BME280;40266;52.434;17.056;2022-11-20T07:47:00;100135.86;;;-1.80;95.18
54369;BME280;40266;52.434;17.056;2022-11-20T07:49:43;100135.90;;;-1.78;95.29
54369;BME280;40266;52.434;17.056;2022-11-20T07:52:26;100131.91;;;-1.73;95.24
54369;BME280;40266;52.434;17.056;2022-11-20T07:55:09;100130.05;;;-1.72;94.93
54369;BME280;40266;52.434;17.056;2022-11-20T07:57:56;100122.18;;;-1.72;94.77
54369;BME280;40266;52.434;17.056;2022-11-20T08:00:42;100124.14;;;-1.68;94.76
54369;BME280;40266;52.434;17.056;2022-11-20T08:03:25;100125.61;;;-1.64;94.63
54369;BME280;40266;52.434;17.056;2022-11-20T08:06:07;100128.09;;;-1.61;94.63
54369;BME280;40266;52.434;17.056;2022-11-20T08:08:51;100123.34;;;-1.59;94.34
54369;BME280;40266;52.434;17.056;2022-11-20T08:11:34;100121.89;;;-1.55;94.25
54369;BME280;40266;52.434;17.056;2022-11-20T08:14:36;100117.55;;;-1.50;94.18
54369;BME280;40266;52.434;17.056;2022-11-20T08:17:19;100118.38;;;-1.43;94.15
54369;BME280;40266;52.434;17.056;2022-11-20T08:20:02;100116.26;;;-1.39;93.93
54369;BME280;40266;52.434;17.056;2022-11-20T08:22:45;100112.61;;;-1.33;93.88
54369;BME280;40266;52.434;17.056;2022-11-20T08:25:29;100109.41;;;-1.30;93.58
54369;BME280;40266;52.434;17.056;2022-11-20T08:28:12;100101.97;;;-1.26;93.69
54369;BME280;40266;52.434;17.056;2022-11-20T08:31:03;100104.87;;;-1.18;93.70
54369;BME280;40266;52.434;17.056;2022-11-20T08:33:46;100102.25;;;-1.12;93.63
54369;BME280;40266;52.434;17.056;2022-11-20T08:36:32;100098.91;;;-1.08;93.28
54369;BME280;40266;52.434;17.056;2022-11-20T08:39:16;100100.73;;;-1.03;93.16
54369;BME280;40266;52.434;17.056;2022-11-20T08:41:59;100094.60;;;-1.01;93.04
54369;BME280;40266;52.434;17.056;2022-11-20T08:44:42;100095.00;;;-0.98;92.69
54369;BME280;40266;52.434;17.056;2022-11-20T08:47:25;100092.52;;;-0.93;92.73
54369;BME280;40266;52.434;17.056;2022-11-20T08:50:10;100090.77;;;-0.87;92.83
54369;BME280;40266;52.434;17.056;2022-11-20T08:52:53;100089.79;;;-0.84;92.58
54369;BME280;40266;52.434;17.056;2022-11-20T08:55:35;100090.23;;;-0.79;92.58
54369;BME280;40266;52.434;17.056;2022-11-20T08:58:19;100089.83;;;-0.73;92.45
54369;BME280;40266;52.434;17.056;2022-11-20T09:01:02;100091.83;;;-0.67;92.55
54369;BME280;40266;52.434;17.056;2022-11-20T09:03:47;100089.64;;;-0.65;91.93
54369;BME280;40266;52.434;17.056;2022-11-20T09:06:30;100089.66;;;-0.63;92.05
54369;BME280;40266;52.434;17.056;2022-11-20T09:09:12;100087.06;;;-0.55;92.08
54369;BME280;40266;52.434;17.056;2022-11-20T09:11:55;100086.27;;;-0.42;92.18
54369;BME280;40266;52.434;17.056;2022-11-20T09:14:38;100083.10;;;-0.27;92.40
54369;BME280;40266;52.434;17.056;2022-11-20T09:17:21;100080.49;;;-0.19;91.82
54369;BME280;40266;52.434;17.056;2022-11-20T09:20:04;100083.55;;;-0.11;91.80
54369;BME280;40266;52.434;17.056;2022-11-20T09:22:48;100083.64;;;-0.04;91.68
54369;BME280;40266;52.434;17.056;2022-11-20T09:25:31;100081.70;;;0.03;91.52
54369;BME280;40266;52.434;17.056;2022-11-20T09:28:14;100081.28;;;0.09;91.29
54369;BME280;40266;52.434;17.056;2022-11-20T09:30:57;100087.20;;;0.14;90.95
54369;BME280;40266;52.434;17.056;2022-11-20T09:33:40;100085.70;;;0.17;90.85
54369;BME280;40266;52.434;17.056;2022-11-20T09:36:23;100089.19;;;0.21;90.98
54369;BME280;40266;52.434;17.056;2022-11-20T09:39:05;100090.61;;;0.25;90.81
54369;BME280;40266;52.434;17.056;2022-11-20T09:44:56;100083.16;;;0.32;90.26
54369;BME280;40266;52.434;17.056;2022-11-20T09:54:17;100073.53;;;0.55;90.28
54369;BME280;40266;52.434;17.056;2022-11-20T09:57:04;100072.87;;;0.56;90.05
54369;BME280;40266;52.434;17.056;2022-11-20T09:59:56;100072.70;;;0.57;90.00
54369;BME280;40266;52.434;17.056;2022-11-20T10:03:03;100070.30;;;0.58;89.86
54369;BME280;40266;52.434;17.056;2022-11-20T10:05:53;100072.31;;;0.68;89.94
54369;BME280;40266;52.434;17.056;2022-11-20T10:08:45;100069.10;;;0.72;89.19
54369;BME280;40266;52.434;17.056;2022-11-20T10:17:34;100063.70;;;0.93;89.14
54369;BME280;40266;52.434;17.056;2022-11-20T10:29:13;100051.48;;;1.24;88.54
54369;BME280;40266;52.434;17.056;2022-11-20T10:32:20;100050.86;;;1.30;88.72
54369;BME280;40266;52.434;17.056;2022-11-20T10:38:21;100045.64;;;1.41;88.42
54369;BME280;40266;52.434;17.056;2022-11-20T10:41:06;100041.52;;;1.44;88.34
54369;BME280;40266;52.434;17.056;2022-11-20T10:44:17;100038.78;;;1.45;87.81
54369;BME280;40266;52.434;17.056;2022-11-20T10:47:18;100037.02;;;1.41;87.48
54369;BME280;40266;52.434;17.056;2022-11-20T10:50:02;100036.40;;;1.48;87.92
54369;BME280;40266;52.434;17.056;2022-11-20T10:53:33;100035.98;;;1.56;87.70
54369;BME280;40266;52.434;17.056;2022-11-20T10:56:33;100034.19;;;1.69;87.69
54369;BME280;40266;52.434;17.056;2022-11-20T11:02:22;100039.20;;;1.72;86.76
54369;BME280;40266;52.434;17.056;2022-11-20T11:08:21;100036.96;;;1.72;87.14
54369;BME280;40266;52.434;17.056;2022-11-20T11:11:23;100033.37;;;1.75;87.16
54369;BME280;40266;52.434;17.056;2022-11-20T11:14:14;100036.60;;;1.70;86.48
54369;BME280;40266;52.434;17.056;2022-11-20T11:16:58;100036.56;;;1.66;86.41
54369;BME280;40266;52.434;17.056;2022-11-20T11:19:41;100033.58;;;1.60;86.24
54369;BME280;40266;52.434;17.056;2022-11-20T11:22:24;100036.48;;;1.57;86.53
54369;BME280;40266;52.434;17.056;2022-11-20T11:25:18;100035.77;;;1.55;86.32
54369;BME280;40266;52.434;17.056;2022-11-20T11:30:59;100033.71;;;1.37;85.68
54369;BME280;40266;52.434;17.056;2022-11-20T11:33:42;100031.95;;;1.33;86.16
54369;BME280;40266;52.434;17.056;2022-11-20T11:36:25;100028.80;;;1.26;86.14
54369;BME280;40266;52.434;17.056;2022-11-20T11:39:14;100029.94;;;1.19;86.03
54369;BME280;40266;52.434;17.056;2022-11-20T11:42:00;100031.39;;;1.11;85.89
54369;BME280;40266;52.434;17.056;2022-11-20T11:44:47;100032.67;;;1.01;85.70
54369;BME280;40266;52.434;17.056;2022-11-20T11:47:50;100026.38;;;0.92;85.88
54369;BME280;40266;52.434;17.056;2022-11-20T11:50:34;100020.42;;;0.84;85.80
54369;BME280;40266;52.434;17.056;2022-11-20T11:53:21;100023.42;;;0.75;85.62
54369;BME280;40266;52.434;17.056;2022-11-20T11:56:09;100020.45;;;0.71;86.09
54369;BME280;40266;52.434;17.056;2022-11-20T11:58:57;100015.45;;;0.69;85.98
54369;BME280;40266;52.434;17.056;2022-11-20T12:01:47;100008.55;;;0.68;85.93
54369;BME280;40266;52.434;17.056;2022-11-20T12:04:54;100006.83;;;0.66;86.12
54369;BME280;40266;52.434;17.056;2022-11-20T12:07:49;100005.08;;;0.65;86.21
54369;BME280;40266;52.434;17.056;2022-11-20T12:16:46;100003.76;;;0.55;86.14
54369;BME280;40266;52.434;17.056;2022-11-20T12:19:31;100001.15;;;0.52;86.35
54369;BME280;40266;52.434;17.056;2022-11-20T12:25:30;100001.59;;;0.47;86.35
54369;BME280;40266;52.434;17.056;2022-11-20T12:34:09;99988.90;;;0.47;86.73
54369;BME280;40266;52.434;17.056;2022-11-20T12:37:22;99990.45;;;0.47;86.74
54369;BME280;40266;52.434;17.056;2022-11-20T12:40:44;99987.50;;;0.46;86.77
54369;BME280;40266;52.434;17.056;2022-11-20T12:43:22;99982.17;;;0.46;87.21
54369;BME280;40266;52.434;17.056;2022-11-20T12:46:38;99980.81;;;0.47;87.13
54369;BME280;40266;52.434;17.056;2022-11-20T12:49:26;99982.00;;;0.45;87.00
54369;BME280;40266;52.434;17.056;2022-11-20T12:52:25;99976.30;;;0.43;87.06
54369;BME280;40266;52.434;17.056;2022-11-20T12:57:57;99972.85;;;0.43;87.05
54369;BME280;40266;52.434;17.056;2022-11-20T13:00:51;99967.70;;;0.43;87.09
54369;BME280;40266;52.434;17.056;2022-11-20T13:03:43;99961.52;;;0.43;87.18
54369;BME280;40266;52.434;17.056;2022-11-20T13:06:30;99965.81;;;0.42;86.89
54369;BME280;40266;52.434;17.056;2022-11-20T13:09:13;99962.89;;;0.41;86.89
54369;BME280;40266;52.434;17.056;2022-11-20T13:12:10;99955.15;;;0.42;87.15
54369;BME280;40266;52.434;17.056;2022-11-20T13:15:15;99956.54;;;0.42;87.15
54369;BME280;40266;52.434;17.056;2022-11-20T13:18:04;99959.78;;;0.40;87.00
54369;BME280;40266;52.434;17.056;2022-11-20T13:20:47;99956.84;;;0.39;86.98
54369;BME280;40266;52.434;17.056;2022-11-20T13:23:32;99955.27;;;0.37;87.06
54369;BME280;40266;52.434;17.056;2022-11-20T13:26:16;99947.88;;;0.37;87.04
54369;BME280;40266;52.434;17.056;2022-11-20T13:29:07;99943.20;;;0.33;86.89
54369;BME280;40266;52.434;17.056;2022-11-20T13:32:14;99940.96;;;0.33;87.24
54369;BME280;40266;52.434;17.056;2022-11-20T13:34:59;99941.48;;;0.33;87.19
54369;BME280;40266;52.434;17.056;2022-11-20T13:37:43;99945.94;;;0.33;87.17
54369;BME280;40266;52.434;17.056;2022-11-20T13:40:27;99942.30;;;0.32;87.18
54369;BME280;40266;52.434;17.056;2022-11-20T13:43:35;99937.86;;;0.31;86.85
54369;BME280;40266;52.434;17.056;2022-11-20T13:46:19;99936.13;;;0.32;87.05
54369;BME280;40266;52.434;17.056;2022-11-20T13:49:09;99934.94;;;0.31;86.63
54369;BME280;40266;52.434;17.056;2022-11-20T14:01:19;99937.75;;;0.23;87.17
54369;BME280;40266;52.434;17.056;2022-11-20T14:04:14;99935.15;;;0.22;87.23
54369;BME280;40266;52.434;17.056;2022-11-20T14:06:58;99936.50;;;0.20;87.35
54369;BME280;40266;52.434;17.056;2022-11-20T14:09:51;99936.48;;;0.18;87.24
54369;BME280;40266;52.434;17.056;2022-11-20T14:12:34;99938.03;;;0.18;87.40
54369;BME280;40266;52.434;17.056;2022-11-20T14:15:34;99935.09;;;0.17;87.31
54369;BME280;40266;52.434;17.056;2022-11-20T14:18:25;99932.52;;;0.16;87.42
54369;BME280;40266;52.434;17.056;2022-11-20T14:21:09;99930.30;;;0.17;87.42
54369;BME280;40266;52.434;17.056;2022-11-20T14:23:53;99928.58;;;0.18;87.54
54369;BME280;40266;52.434;17.056;2022-11-20T14:26:37;99927.04;;;0.18;87.44
54369;BME280;40266;52.434;17.056;2022-11-20T14:29:27;99924.80;;;0.16;87.48
54369;BME280;40266;52.434;17.056;2022-11-20T14:32:14;99924.77;;;0.15;87.50
54369;BME280;40266;52.434;17.056;2022-11-20T14:35:06;99919.89;;;0.10;87.29
54369;BME280;40266;52.434;17.056;2022-11-20T14:37:50;99919.89;;;0.10;87.57
54369;BME280;40266;52.434;17.056;2022-11-20T14:40:35;99919.35;;;0.09;87.59
54369;BME280;40266;52.434;17.056;2022-11-20T14:43:27;99918.48;;;0.08;87.76
54369;BME280;40266;52.434;17.056;2022-11-20T14:46:10;99917.79;;;0.06;87.69
54369;BME280;40266;52.434;17.056;2022-11-20T14:48:57;99915.16;;;0.03;87.44
54369;BME280;40266;52.434;17.056;2022-11-20T14:51:43;99918.77;;;0.03;87.85
54369;BME280;40266;52.434;17.056;2022-11-20T14:54:27;99914.63;;;0.02;87.86
54369;BME280;40266;52.434;17.056;2022-11-20T15:00:22;99908.41;;;-0.02;87.93
54369;BME280;40266;52.434;17.056;2022-11-20T15:03:15;99905.62;;;-0.05;88.19
54369;BME280;40266;52.434;17.056;2022-11-20T15:05:58;99901.11;;;-0.08;88.23
54369;BME280;40266;52.434;17.056;2022-11-20T15:08:50;99902.26;;;-0.12;88.40
54369;BME280;40266;52.434;17.056;2022-11-20T15:11:35;99898.95;;;-0.15;88.65
54369;BME280;40266;52.434;17.056;2022-11-20T15:14:18;99897.71;;;-0.19;88.87
54369;BME280;40266;52.434;17.056;2022-11-20T15:17:01;99900.94;;;-0.22;88.94
54369;BME280;40266;52.434;17.056;2022-11-20T15:19:44;99899.00;;;-0.25;89.01
54369;BME280;40266;52.434;17.056;2022-11-20T15:22:27;99893.98;;;-0.29;89.16
54369;BME280;40266;52.434;17.056;2022-11-20T15:25:14;99892.05;;;-0.32;88.97
54369;BME280;40266;52.434;17.056;2022-11-20T15:27:57;99891.00;;;-0.33;89.23
54369;BME280;40266;52.434;17.056;2022-11-20T15:30:40;99889.42;;;-0.35;89.06
54369;BME280;40266;52.434;17.056;2022-11-20T15:33:23;99893.34;;;-0.37;89.16